sensor_id;sensor_type;location;lat;lon;timestamp;temperature;humidity
19586;DHT22;9939;49.246;9.106;2023-02-25T00:01:39;5.40;99.90
19586;DHT22;9939;49.246;9.106;2023-02-25T00:04:10;5.30;99.90
19586;DHT22;9939;49.246;9.106;2023-02-25T00:06:38;5.20;99.90
19586;DHT22;9939;49.246;9.106;2023-02-25T00:09:05;5.40;99.90
19586;DHT22;9939;49.246;9.106;2023-02-25T00:11:33;5.40;99.90
19586;DHT22;9939;49.246;9.106;2023-02-25T00:14:00;5.40;99.90
19586;DHT22;9939;49.246;9.106;2023-02-25T00:16:28;5.50;99.90
19586;DHT22;9939;49.246;9.106;2023-02-25T00:18:55;5.40;99.90
19586;DHT22;9939;49.246;9.106;2023-02-25T00:21:22;5.60;99.90
19586;DHT22;9939;49.246;9.106;2023-02-25T00:23:49;5.60;99.90
19586;DHT22;9939;49.246;9.106;2023-02-25T00:26:16;5.60;99.90
19586;DHT22;9939;49.246;9.106;2023-02-25T00:28:44;5.60;99.90
19586;DHT22;9939;49.246;9.106;2023-02-25T00:31:13;5.50;99.90
19586;DHT22;9939;49.246;9.106;2023-02-25T00:33:41;5.50;99.90
19586;DHT22;9939;49.246;9.106;2023-02-25T00:36:08;5.50;99.90
19586;DHT22;9939;49.246;9.106;2023-02-25T00:38:35;5.50;99.90
19586;DHT22;9939;49.246;9.106;2023-02-25T00:41:06;5.50;99.90
19586;DHT22;9939;49.246;9.106;2023-02-25T00:43:43;5.40;99.90
19586;DHT22;9939;49.246;9.106;2023-02-25T00:46:11;5.40;99.90
19586;DHT22;9939;49.246;9.106;2023-02-25T00:48:38;5.40;99.90
19586;DHT22;9939;49.246;9.106;2023-02-25T00:51:06;5.40;99.90
19586;DHT22;9939;49.246;9.106;2023-02-25T00:53:33;5.30;99.90
19586;DHT22;9939;49.246;9.106;2023-02-25T00:56:00;5.30;99.90
19586;DHT22;9939;49.246;9.106;2023-02-25T00:58:27;5.30;99.90
19586;DHT22;9939;49.246;9.106;2023-02-25T01:00:54;5.30;99.90
19586;DHT22;9939;49.246;9.106;2023-02-25T01:03:21;5.30;99.90
19586;DHT22;9939;49.246;9.106;2023-02-25T01:05:49;5.30;99.90
19586;DHT22;9939;49.246;9.106;2023-02-25T01:08:17;5.10;99.90
19586;DHT22;9939;49.246;9.106;2023-02-25T01:10:44;5.00;99.90
19586;DHT22;9939;49.246;9.106;2023-02-25T01:13:11;4.90;99.90
19586;DHT22;9939;49.246;9.106;2023-02-25T01:15:38;4.80;99.90
19586;DHT22;9939;49.246;9.106;2023-02-25T01:18:05;4.70;99.90
19586;DHT22;9939;49.246;9.106;2023-02-25T01:20:36;4.70;99.90
19586;DHT22;9939;49.246;9.106;2023-02-25T01:23:03;4.80;99.90
19586;DHT22;9939;49.246;9.106;2023-02-25T01:25:30;4.80;99.90
19586;DHT22;9939;49.246;9.106;2023-02-25T01:27:57;4.80;99.90
19586;DHT22;9939;49.246;9.106;2023-02-25T01:30:24;4.80;99.90
19586;DHT22;9939;49.246;9.106;2023-02-25T01:32:51;4.70;99.90
19586;DHT22;9939;49.246;9.106;2023-02-25T01:35:18;4.70;99.90
19586;DHT22;9939;49.246;9.106;2023-02-25T01:37:44;4.70;99.90
19586;DHT22;9939;49.246;9.106;2023-02-25T01:40:13;4.70;99.90
19586;DHT22;9939;49.246;9.106;2023-02-25T01:42:44;4.80;99.90
19586;DHT22;9939;49.246;9.106;2023-02-25T01:48:07;4.80;99.90
19586;DHT22;9939;49.246;9.106;2023-02-25T01:50:54;4.80;99.90
19586;DHT22;9939;49.246;9.106;2023-02-25T01:53:21;4.80;99.90
19586;DHT22;9939;49.246;9.106;2023-02-25T01:55:49;4.80;99.90
19586;DHT22;9939;49.246;9.106;2023-02-25T01:58:16;4.60;99.90
19586;DHT22;9939;49.246;9.106;2023-02-25T02:00:43;4.60;99.90
19586;DHT22;9939;49.246;9.106;2023-02-25T02:03:10;4.50;99.90
19586;DHT22;9939;49.246;9.106;2023-02-25T02:05:51;4.20;99.90
19586;DHT22;9939;49.246;9.106;2023-02-25T02:08:19;4.30;99.90
19586;DHT22;9939;49.246;9.106;2023-02-25T02:10:46;4.10;99.90
19586;DHT22;9939;49.246;9.106;2023-02-25T02:13:13;4.00;99.90
19586;DHT22;9939;49.246;9.106;2023-02-25T02:15:41;4.10;99.90
19586;DHT22;9939;49.246;9.106;2023-02-25T02:18:10;4.00;99.90
19586;DHT22;9939;49.246;9.106;2023-02-25T02:20:43;3.90;99.90
19586;DHT22;9939;49.246;9.106;2023-02-25T02:28:25;3.80;99.90
19586;DHT22;9939;49.246;9.106;2023-02-25T02:36:33;3.60;99.90
19586;DHT22;9939;49.246;9.106;2023-02-25T02:41:34;3.50;99.90
19586;DHT22;9939;49.246;9.106;2023-02-25T02:46:31;3.50;99.90
19586;DHT22;9939;49.246;9.106;2023-02-25T02:54:12;3.70;99.90
19586;DHT22;9939;49.246;9.106;2023-02-25T02:56:41;3.60;99.90
19586;DHT22;9939;49.246;9.106;2023-02-25T02:59:10;3.60;99.90
19586;DHT22;9939;49.246;9.106;2023-02-25T03:01:43;3.70;99.90
19586;DHT22;9939;49.246;9.106;2023-02-25T03:04:15;3.70;99.90
19586;DHT22;9939;49.246;9.106;2023-02-25T03:06:45;3.70;99.90
19586;DHT22;9939;49.246;9.106;2023-02-25T03:09:18;3.80;99.90
19586;DHT22;9939;49.246;9.106;2023-02-25T03:11:48;3.90;99.90
19586;DHT22;9939;49.246;9.106;2023-02-25T03:14:16;3.90;99.90
19586;DHT22;9939;49.246;9.106;2023-02-25T03:16:43;4.10;99.90
19586;DHT22;9939;49.246;9.106;2023-02-25T03:19:13;4.00;99.90
19586;DHT22;9939;49.246;9.106;2023-02-25T03:21:41;4.10;99.90
19586;DHT22;9939;49.246;9.106;2023-02-25T03:24:10;4.00;99.90
19586;DHT22;9939;49.246;9.106;2023-02-25T03:26:39;4.10;99.90
19586;DHT22;9939;49.246;9.106;2023-02-25T03:29:17;4.10;99.90
19586;DHT22;9939;49.246;9.106;2023-02-25T03:34:24;4.10;99.90
19586;DHT22;9939;49.246;9.106;2023-02-25T03:36:55;4.10;99.90
19586;DHT22;9939;49.246;9.106;2023-02-25T03:39:26;4.10;99.90
19586;DHT22;9939;49.246;9.106;2023-02-25T03:41:55;4.20;99.90
19586;DHT22;9939;49.246;9.106;2023-02-25T03:44:37;4.10;99.90
19586;DHT22;9939;49.246;9.106;2023-02-25T03:47:05;4.10;99.90
19586;DHT22;9939;49.246;9.106;2023-02-25T03:49:35;3.90;99.90
19586;DHT22;9939;49.246;9.106;2023-02-25T03:52:05;3.90;99.90
19586;DHT22;9939;49.246;9.106;2023-02-25T03:54:35;3.90;99.90
19586;DHT22;9939;49.246;9.106;2023-02-25T03:57:02;3.90;99.90
19586;DHT22;9939;49.246;9.106;2023-02-25T03:59:28;3.90;99.90
19586;DHT22;9939;49.246;9.106;2023-02-25T04:01:55;4.00;99.90
19586;DHT22;9939;49.246;9.106;2023-02-25T04:04:23;4.20;99.90
19586;DHT22;9939;49.246;9.106;2023-02-25T04:06:50;4.00;99.90
19586;DHT22;9939;49.246;9.106;2023-02-25T04:09:17;4.00;99.90
19586;DHT22;9939;49.246;9.106;2023-02-25T04:11:44;4.00;99.90
19586;DHT22;9939;49.246;9.106;2023-02-25T04:14:11;3.90;99.90
19586;DHT22;9939;49.246;9.106;2023-02-25T04:16:38;4.00;99.90
19586;DHT22;9939;49.246;9.106;2023-02-25T04:19:05;4.00;99.90
19586;DHT22;9939;49.246;9.106;2023-02-25T04:21:33;4.10;99.90
19586;DHT22;9939;49.246;9.106;2023-02-25T04:24:01;4.10;99.90
19586;DHT22;9939;49.246;9.106;2023-02-25T04:26:28;4.00;99.90
19586;DHT22;9939;49.246;9.106;2023-02-25T04:28:55;4.10;99.90
19586;DHT22;9939;49.246;9.106;2023-02-25T04:31:22;4.00;99.90
19586;DHT22;9939;49.246;9.106;2023-02-25T04:33:49;4.10;99.90
19586;DHT22;9939;49.246;9.106;2023-02-25T04:38:49;4.10;99.90
19586;DHT22;9939;49.246;9.106;2023-02-25T04:41:16;4.20;99.90
19586;DHT22;9939;49.246;9.106;2023-02-25T04:43:43;4.20;99.90
19586;DHT22;9939;49.246;9.106;2023-02-25T04:46:13;4.10;99.90
19586;DHT22;9939;49.246;9.106;2023-02-25T04:48:40;4.00;99.90
19586;DHT22;9939;49.246;9.106;2023-02-25T04:51:07;4.20;99.90
19586;DHT22;9939;49.246;9.106;2023-02-25T04:53:34;4.20;99.90
19586;DHT22;9939;49.246;9.106;2023-02-25T04:56:04;4.20;99.90
19586;DHT22;9939;49.246;9.106;2023-02-25T04:58:32;4.20;99.90
19586;DHT22;9939;49.246;9.106;2023-02-25T05:00:59;4.40;99.90
19586;DHT22;9939;49.246;9.106;2023-02-25T05:03:27;4.20;99.90
19586;DHT22;9939;49.246;9.106;2023-02-25T05:05:54;4.20;99.90
19586;DHT22;9939;49.246;9.106;2023-02-25T05:08:21;4.20;99.90
19586;DHT22;9939;49.246;9.106;2023-02-25T05:10:48;4.10;99.90
19586;DHT22;9939;49.246;9.106;2023-02-25T05:13:16;4.10;99.90
19586;DHT22;9939;49.246;9.106;2023-02-25T05:15:43;4.20;99.90
19586;DHT22;9939;49.246;9.106;2023-02-25T05:18:10;4.20;99.90
19586;DHT22;9939;49.246;9.106;2023-02-25T05:20:44;4.20;99.90
19586;DHT22;9939;49.246;9.106;2023-02-25T05:23:11;4.10;99.90
19586;DHT22;9939;49.246;9.106;2023-02-25T05:25:38;4.10;99.90
19586;DHT22;9939;49.246;9.106;2023-02-25T05:28:09;4.20;99.90
19586;DHT22;9939;49.246;9.106;2023-02-25T05:30:37;4.20;99.90
19586;DHT22;9939;49.246;9.106;2023-02-25T05:33:05;4.10;99.90
19586;DHT22;9939;49.246;9.106;2023-02-25T05:35:32;4.10;99.90
19586;DHT22;9939;49.246;9.106;2023-02-25T05:37:59;4.10;99.90
19586;DHT22;9939;49.246;9.106;2023-02-25T05:40:25;4.10;99.90
19586;DHT22;9939;49.246;9.106;2023-02-25T05:42:52;4.00;99.90
19586;DHT22;9939;49.246;9.106;2023-02-25T05:45:19;4.20;99.90
19586;DHT22;9939;49.246;9.106;2023-02-25T05:47:46;4.20;99.90
19586;DHT22;9939;49.246;9.106;2023-02-25T05:50:13;4.20;99.90
19586;DHT22;9939;49.246;9.106;2023-02-25T05:52:40;4.10;99.90
19586;DHT22;9939;49.246;9.106;2023-02-25T05:55:07;4.20;99.90
19586;DHT22;9939;49.246;9.106;2023-02-25T05:57:35;4.10;99.90
19586;DHT22;9939;49.246;9.106;2023-02-25T06:00:03;4.20;99.90
19586;DHT22;9939;49.246;9.106;2023-02-25T06:02:37;4.30;99.90
19586;DHT22;9939;49.246;9.106;2023-02-25T06:05:04;4.30;99.90
19586;DHT22;9939;49.246;9.106;2023-02-25T06:07:32;4.30;99.90
19586;DHT22;9939;49.246;9.106;2023-02-25T06:09:59;4.30;99.90
19586;DHT22;9939;49.246;9.106;2023-02-25T06:12:30;4.40;99.90
19586;DHT22;9939;49.246;9.106;2023-02-25T06:14:57;4.30;99.90
19586;DHT22;9939;49.246;9.106;2023-02-25T06:17:24;4.30;99.90
19586;DHT22;9939;49.246;9.106;2023-02-25T06:19:51;4.30;99.90
19586;DHT22;9939;49.246;9.106;2023-02-25T06:22:19;4.30;99.90
19586;DHT22;9939;49.246;9.106;2023-02-25T06:24:46;4.20;99.90
19586;DHT22;9939;49.246;9.106;2023-02-25T06:27:13;4.20;99.90
19586;DHT22;9939;49.246;9.106;2023-02-25T06:29:41;4.30;99.90
19586;DHT22;9939;49.246;9.106;2023-02-25T06:32:08;4.30;99.90
19586;DHT22;9939;49.246;9.106;2023-02-25T06:34:35;4.30;99.90
19586;DHT22;9939;49.246;9.106;2023-02-25T06:37:02;4.30;99.90
19586;DHT22;9939;49.246;9.106;2023-02-25T06:39:29;4.20;99.90
19586;DHT22;9939;49.246;9.106;2023-02-25T06:41:56;4.30;99.90
19586;DHT22;9939;49.246;9.106;2023-02-25T06:44:23;4.40;99.90
19586;DHT22;9939;49.246;9.106;2023-02-25T06:46:50;4.30;99.90
19586;DHT22;9939;49.246;9.106;2023-02-25T06:49:17;4.40;99.90
19586;DHT22;9939;49.246;9.106;2023-02-25T06:51:44;4.40;99.90
19586;DHT22;9939;49.246;9.106;2023-02-25T06:54:11;4.50;99.90
19586;DHT22;9939;49.246;9.106;2023-02-25T06:56:38;4.50;99.90
19586;DHT22;9939;49.246;9.106;2023-02-25T06:59:04;4.50;99.90
19586;DHT22;9939;49.246;9.106;2023-02-25T07:01:32;4.60;99.90
19586;DHT22;9939;49.246;9.106;2023-02-25T07:03:58;4.60;99.90
19586;DHT22;9939;49.246;9.106;2023-02-25T07:06:25;4.60;99.90
19586;DHT22;9939;49.246;9.106;2023-02-25T07:08:52;4.60;99.90
19586;DHT22;9939;49.246;9.106;2023-02-25T07:13:47;4.60;99.90
19586;DHT22;9939;49.246;9.106;2023-02-25T07:16:14;4.70;99.90
19586;DHT22;9939;49.246;9.106;2023-02-25T07:18:42;4.70;99.90
19586;DHT22;9939;49.246;9.106;2023-02-25T07:21:09;4.70;99.90
19586;DHT22;9939;49.246;9.106;2023-02-25T07:23:40;4.80;99.90
19586;DHT22;9939;49.246;9.106;2023-02-25T07:26:08;4.80;99.90
19586;DHT22;9939;49.246;9.106;2023-02-25T07:28:35;4.80;99.90
19586;DHT22;9939;49.246;9.106;2023-02-25T07:31:15;4.80;99.90
19586;DHT22;9939;49.246;9.106;2023-02-25T07:33:43;4.70;99.90
19586;DHT22;9939;49.246;9.106;2023-02-25T07:36:10;4.90;99.90
19586;DHT22;9939;49.246;9.106;2023-02-25T07:38:37;4.90;99.90
19586;DHT22;9939;49.246;9.106;2023-02-25T07:41:05;5.00;99.90
19586;DHT22;9939;49.246;9.106;2023-02-25T07:43:32;5.10;99.90
19586;DHT22;9939;49.246;9.106;2023-02-25T07:45:59;5.20;99.90
19586;DHT22;9939;49.246;9.106;2023-02-25T07:48:26;5.30;99.90
19586;DHT22;9939;49.246;9.106;2023-02-25T07:50:53;5.40;99.90
19586;DHT22;9939;49.246;9.106;2023-02-25T07:53:21;5.60;99.90
19586;DHT22;9939;49.246;9.106;2023-02-25T07:55:48;5.70;99.90
19586;DHT22;9939;49.246;9.106;2023-02-25T07:58:16;5.70;99.90
19586;DHT22;9939;49.246;9.106;2023-02-25T08:00:43;5.80;99.90
19586;DHT22;9939;49.246;9.106;2023-02-25T08:03:11;5.70;99.90
19586;DHT22;9939;49.246;9.106;2023-02-25T08:05:38;5.50;99.90
19586;DHT22;9939;49.246;9.106;2023-02-25T08:08:05;5.60;99.90
19586;DHT22;9939;49.246;9.106;2023-02-25T08:10:32;5.80;99.90
19586;DHT22;9939;49.246;9.106;2023-02-25T08:12:59;5.80;99.90
19586;DHT22;9939;49.246;9.106;2023-02-25T08:15:26;5.80;99.90
19586;DHT22;9939;49.246;9.106;2023-02-25T08:17:53;5.70;99.90
19586;DHT22;9939;49.246;9.106;2023-02-25T08:20:21;5.60;99.90
19586;DHT22;9939;49.246;9.106;2023-02-25T08:22:48;5.70;99.90
19586;DHT22;9939;49.246;9.106;2023-02-25T08:25:15;5.80;99.90
19586;DHT22;9939;49.246;9.106;2023-02-25T08:27:42;5.80;99.90
19586;DHT22;9939;49.246;9.106;2023-02-25T08:30:10;5.90;99.90
19586;DHT22;9939;49.246;9.106;2023-02-25T08:32:37;5.80;99.90
19586;DHT22;9939;49.246;9.106;2023-02-25T08:35:04;5.70;99.90
19586;DHT22;9939;49.246;9.106;2023-02-25T08:37:31;5.90;99.90
19586;DHT22;9939;49.246;9.106;2023-02-25T08:39:58;6.10;99.90
19586;DHT22;9939;49.246;9.106;2023-02-25T08:42:25;5.90;99.90
19586;DHT22;9939;49.246;9.106;2023-02-25T08:44:52;6.20;99.90
19586;DHT22;9939;49.246;9.106;2023-02-25T08:47:19;6.50;99.90
19586;DHT22;9939;49.246;9.106;2023-02-25T08:49:46;6.40;99.90
19586;DHT22;9939;49.246;9.106;2023-02-25T08:52:13;6.60;99.90
19586;DHT22;9939;49.246;9.106;2023-02-25T08:54:40;6.90;99.90
19586;DHT22;9939;49.246;9.106;2023-02-25T08:57:07;6.90;99.90
19586;DHT22;9939;49.246;9.106;2023-02-25T08:59:33;6.90;99.90
19586;DHT22;9939;49.246;9.106;2023-02-25T09:02:04;7.10;99.90
19586;DHT22;9939;49.246;9.106;2023-02-25T09:04:32;7.20;99.90
19586;DHT22;9939;49.246;9.106;2023-02-25T09:06:59;6.90;99.90
19586;DHT22;9939;49.246;9.106;2023-02-25T09:09:26;6.90;99.90
19586;DHT22;9939;49.246;9.106;2023-02-25T09:11:53;7.10;99.90
19586;DHT22;9939;49.246;9.106;2023-02-25T09:14:20;7.50;99.90
19586;DHT22;9939;49.246;9.106;2023-02-25T09:16:47;7.10;99.90
19586;DHT22;9939;49.246;9.106;2023-02-25T09:19:14;7.30;99.90
19586;DHT22;9939;49.246;9.106;2023-02-25T09:21:44;7.30;99.90
19586;DHT22;9939;49.246;9.106;2023-02-25T09:24:14;7.10;99.90
19586;DHT22;9939;49.246;9.106;2023-02-25T09:26:41;6.90;99.90
19586;DHT22;9939;49.246;9.106;2023-02-25T09:29:08;6.90;99.90
19586;DHT22;9939;49.246;9.106;2023-02-25T09:31:35;6.90;99.90
19586;DHT22;9939;49.246;9.106;2023-02-25T09:34:03;6.90;99.90
19586;DHT22;9939;49.246;9.106;2023-02-25T09:36:32;7.40;99.90
19586;DHT22;9939;49.246;9.106;2023-02-25T09:38:59;8.00;99.90
19586;DHT22;9939;49.246;9.106;2023-02-25T09:47:14;7.90;99.90
19586;DHT22;9939;49.246;9.106;2023-02-25T09:54:41;7.30;99.90
19586;DHT22;9939;49.246;9.106;2023-02-25T09:57:12;7.30;99.90
19586;DHT22;9939;49.246;9.106;2023-02-25T09:59:41;7.30;99.90
19586;DHT22;9939;49.246;9.106;2023-02-25T10:07:57;6.70;99.90
19586;DHT22;9939;49.246;9.106;2023-02-25T10:10:33;6.50;99.90
19586;DHT22;9939;49.246;9.106;2023-02-25T10:13:07;6.50;99.90
19586;DHT22;9939;49.246;9.106;2023-02-25T10:20:50;5.90;99.90
19586;DHT22;9939;49.246;9.106;2023-02-25T10:28:23;6.10;99.90
19586;DHT22;9939;49.246;9.106;2023-02-25T10:33:27;6.00;99.90
19586;DHT22;9939;49.246;9.106;2023-02-25T10:35:59;6.10;99.90
19586;DHT22;9939;49.246;9.106;2023-02-25T10:38:28;5.90;99.90
19586;DHT22;9939;49.246;9.106;2023-02-25T10:40:55;6.10;99.90
19586;DHT22;9939;49.246;9.106;2023-02-25T10:43:24;6.20;99.90
19586;DHT22;9939;49.246;9.106;2023-02-25T10:45:56;6.30;99.90
19586;DHT22;9939;49.246;9.106;2023-02-25T10:48:26;6.10;99.90
19586;DHT22;9939;49.246;9.106;2023-02-25T10:53:32;6.20;99.90
19586;DHT22;9939;49.246;9.106;2023-02-25T10:55:59;6.20;99.90
19586;DHT22;9939;49.246;9.106;2023-02-25T10:58:34;6.40;99.90
19586;DHT22;9939;49.246;9.106;2023-02-25T11:03:31;6.50;99.90
19586;DHT22;9939;49.246;9.106;2023-02-25T11:06:09;6.50;99.90
19586;DHT22;9939;49.246;9.106;2023-02-25T11:08:36;6.60;99.90
19586;DHT22;9939;49.246;9.106;2023-02-25T11:11:05;6.60;99.90
19586;DHT22;9939;49.246;9.106;2023-02-25T11:13:35;6.40;99.90
19586;DHT22;9939;49.246;9.106;2023-02-25T11:16:04;6.40;99.90
19586;DHT22;9939;49.246;9.106;2023-02-25T11:18:32;6.60;99.90
19586;DHT22;9939;49.246;9.106;2023-02-25T11:21:00;6.80;99.90
19586;DHT22;9939;49.246;9.106;2023-02-25T11:25:54;6.70;99.90
19586;DHT22;9939;49.246;9.106;2023-02-25T11:28:26;6.70;99.90
19586;DHT22;9939;49.246;9.106;2023-02-25T11:30:56;6.90;99.90
19586;DHT22;9939;49.246;9.106;2023-02-25T11:33:33;7.20;99.90
19586;DHT22;9939;49.246;9.106;2023-02-25T11:36:01;7.20;99.90
19586;DHT22;9939;49.246;9.106;2023-02-25T11:38:34;6.70;99.90
19586;DHT22;9939;49.246;9.106;2023-02-25T11:41:01;6.60;99.90
19586;DHT22;9939;49.246;9.106;2023-02-25T11:43:37;6.70;99.90
19586;DHT22;9939;49.246;9.106;2023-02-25T11:46:05;6.80;99.90
19586;DHT22;9939;49.246;9.106;2023-02-25T11:56:08;7.60;99.90
19586;DHT22;9939;49.246;9.106;2023-02-25T11:58:54;7.40;99.90
19586;DHT22;9939;49.246;9.106;2023-02-25T12:09:11;7.90;99.90
19586;DHT22;9939;49.246;9.106;2023-02-25T12:14:35;7.70;99.90
19586;DHT22;9939;49.246;9.106;2023-02-25T12:41:53;7.00;99.90
19586;DHT22;9939;49.246;9.106;2023-02-25T13:25:48;8.90;99.90
19586;DHT22;9939;49.246;9.106;2023-02-25T13:28:28;8.40;99.90
19586;DHT22;9939;49.246;9.106;2023-02-25T13:52:11;14.70;99.90
19586;DHT22;9939;49.246;9.106;2023-02-25T13:57:46;11.90;99.90
19586;DHT22;9939;49.246;9.106;2023-02-25T14:00:15;11.10;99.90
19586;DHT22;9939;49.246;9.106;2023-02-25T14:03:14;9.50;99.90
19586;DHT22;9939;49.246;9.106;2023-02-25T14:08:43;12.60;99.90
19586;DHT22;9939;49.246;9.106;2023-02-25T14:25:15;18.70;99.90
19586;DHT22;9939;49.246;9.106;2023-02-25T14:33:26;11.80;99.90
19586;DHT22;9939;49.246;9.106;2023-02-25T14:43:45;5.30;99.90
19586;DHT22;9939;49.246;9.106;2023-02-25T14:51:36;3.90;99.90
19586;DHT22;9939;49.246;9.106;2023-02-25T15:15:17;5.40;99.90
19586;DHT22;9939;49.246;9.106;2023-02-25T15:20:22;5.90;99.90
19586;DHT22;9939;49.246;9.106;2023-02-25T15:27:50;5.90;99.90
19586;DHT22;9939;49.246;9.106;2023-02-25T15:35:22;6.10;99.90
19586;DHT22;9939;49.246;9.106;2023-02-25T15:42:46;6.20;99.90
19586;DHT22;9939;49.246;9.106;2023-02-25T15:53:07;6.20;99.90
19586;DHT22;9939;49.246;9.106;2023-02-25T15:55:38;6.50;99.90
19586;DHT22;9939;49.246;9.106;2023-02-25T16:11:17;6.50;99.90
19586;DHT22;9939;49.246;9.106;2023-02-25T16:13:45;6.30;99.90
19586;DHT22;9939;49.246;9.106;2023-02-25T16:16:13;6.20;99.90
19586;DHT22;9939;49.246;9.106;2023-02-25T16:18:43;6.10;99.90
19586;DHT22;9939;49.246;9.106;2023-02-25T16:21:23;5.80;99.90
19586;DHT22;9939;49.246;9.106;2023-02-25T16:23:52;5.30;99.90
19586;DHT22;9939;49.246;9.106;2023-02-25T16:33:51;3.30;99.90
19586;DHT22;9939;49.246;9.106;2023-02-25T16:41:13;3.10;99.90
19586;DHT22;9939;49.246;9.106;2023-02-25T16:43:41;3.10;99.90
19586;DHT22;9939;49.246;9.106;2023-02-25T16:46:10;3.10;99.90
19586;DHT22;9939;49.246;9.106;2023-02-25T16:48:44;3.10;99.90
19586;DHT22;9939;49.246;9.106;2023-02-25T16:51:15;3.00;99.90
19586;DHT22;9939;49.246;9.106;2023-02-25T16:53:44;3.00;99.90
19586;DHT22;9939;49.246;9.106;2023-02-25T16:56:13;3.00;99.90
19586;DHT22;9939;49.246;9.106;2023-02-25T17:01:28;2.20;99.90
19586;DHT22;9939;49.246;9.106;2023-02-25T17:04:11;2.80;99.90
19586;DHT22;9939;49.246;9.106;2023-02-25T17:06:39;2.80;99.90
19586;DHT22;9939;49.246;9.106;2023-02-25T17:09:06;2.80;99.90
19586;DHT22;9939;49.246;9.106;2023-02-25T17:11:49;2.80;99.90
19586;DHT22;9939;49.246;9.106;2023-02-25T17:14:18;2.70;99.90
19586;DHT22;9939;49.246;9.106;2023-02-25T17:16:45;2.70;99.90
19586;DHT22;9939;49.246;9.106;2023-02-25T17:19:14;2.80;99.90
19586;DHT22;9939;49.246;9.106;2023-02-25T17:21:43;2.70;99.90
19586;DHT22;9939;49.246;9.106;2023-02-25T17:24:12;2.70;99.90
19586;DHT22;9939;49.246;9.106;2023-02-25T17:26:40;2.80;99.90
19586;DHT22;9939;49.246;9.106;2023-02-25T17:29:09;2.80;99.90
19586;DHT22;9939;49.246;9.106;2023-02-25T17:31:41;2.80;99.90
19586;DHT22;9939;49.246;9.106;2023-02-25T17:34:12;2.80;99.90
19586;DHT22;9939;49.246;9.106;2023-02-25T17:36:39;2.80;99.90
19586;DHT22;9939;49.246;9.106;2023-02-25T17:39:07;2.80;99.90
19586;DHT22;9939;49.246;9.106;2023-02-25T17:41:37;2.80;99.90
19586;DHT22;9939;49.246;9.106;2023-02-25T17:44:10;2.80;99.90
19586;DHT22;9939;49.246;9.106;2023-02-25T17:46:38;2.70;99.90
19586;DHT22;9939;49.246;9.106;2023-02-25T17:49:18;2.80;99.90
19586;DHT22;9939;49.246;9.106;2023-02-25T17:51:45;2.70;99.90
19586;DHT22;9939;49.246;9.106;2023-02-25T17:54:17;2.70;99.90
19586;DHT22;9939;49.246;9.106;2023-02-25T17:56:45;2.60;99.90
19586;DHT22;9939;49.246;9.106;2023-02-25T18:01:54;2.60;99.90
19586;DHT22;9939;49.246;9.106;2023-02-25T18:06:49;2.50;99.90
19586;DHT22;9939;49.246;9.106;2023-02-25T18:09:29;2.40;99.90
19586;DHT22;9939;49.246;9.106;2023-02-25T18:11:58;2.30;99.90
19586;DHT22;9939;49.246;9.106;2023-02-25T18:16:55;2.10;99.90
19586;DHT22;9939;49.246;9.106;2023-02-25T18:21:48;2.10;99.90
19586;DHT22;9939;49.246;9.106;2023-02-25T18:24:22;2.10;99.90
19586;DHT22;9939;49.246;9.106;2023-02-25T18:29:46;2.00;99.90
19586;DHT22;9939;49.246;9.106;2023-02-25T18:32:13;2.10;99.90
19586;DHT22;9939;49.246;9.106;2023-02-25T18:34:41;2.10;99.90
19586;DHT22;9939;49.246;9.106;2023-02-25T18:37:12;2.00;99.90
19586;DHT22;9939;49.246;9.106;2023-02-25T18:39:39;2.10;99.90
19586;DHT22;9939;49.246;9.106;2023-02-25T18:42:08;2.00;99.90
19586;DHT22;9939;49.246;9.106;2023-02-25T18:44:38;2.10;99.90
19586;DHT22;9939;49.246;9.106;2023-02-25T18:47:04;2.20;99.90
19586;DHT22;9939;49.246;9.106;2023-02-25T18:49:31;2.30;99.90
19586;DHT22;9939;49.246;9.106;2023-02-25T18:51:58;2.30;99.90
19586;DHT22;9939;49.246;9.106;2023-02-25T18:54:25;2.30;99.90
19586;DHT22;9939;49.246;9.106;2023-02-25T18:56:52;2.30;99.90
19586;DHT22;9939;49.246;9.106;2023-02-25T18:59:19;2.30;99.90
19586;DHT22;9939;49.246;9.106;2023-02-25T19:01:45;2.40;99.90
19586;DHT22;9939;49.246;9.106;2023-02-25T19:04:16;2.30;99.90
19586;DHT22;9939;49.246;9.106;2023-02-25T19:06:43;2.40;99.90
19586;DHT22;9939;49.246;9.106;2023-02-25T19:09:10;2.40;99.90
19586;DHT22;9939;49.246;9.106;2023-02-25T19:11:37;2.40;99.90
19586;DHT22;9939;49.246;9.106;2023-02-25T19:14:03;2.40;99.90
19586;DHT22;9939;49.246;9.106;2023-02-25T19:16:32;2.30;99.90
19586;DHT22;9939;49.246;9.106;2023-02-25T19:18:59;2.40;99.90
19586;DHT22;9939;49.246;9.106;2023-02-25T19:21:26;2.40;99.90
19586;DHT22;9939;49.246;9.106;2023-02-25T19:23:53;2.30;99.90
19586;DHT22;9939;49.246;9.106;2023-02-25T19:26:20;2.40;99.90
19586;DHT22;9939;49.246;9.106;2023-02-25T19:28:48;2.40;99.90
19586;DHT22;9939;49.246;9.106;2023-02-25T19:31:15;2.40;99.90
19586;DHT22;9939;49.246;9.106;2023-02-25T19:33:43;2.40;99.90
19586;DHT22;9939;49.246;9.106;2023-02-25T19:36:10;2.60;99.90
19586;DHT22;9939;49.246;9.106;2023-02-25T19:38:37;2.50;99.90
19586;DHT22;9939;49.246;9.106;2023-02-25T19:41:04;2.50;99.90
19586;DHT22;9939;49.246;9.106;2023-02-25T19:43:32;2.50;99.90
19586;DHT22;9939;49.246;9.106;2023-02-25T19:45:59;2.50;99.90
19586;DHT22;9939;49.246;9.106;2023-02-25T19:48:26;2.50;99.90
19586;DHT22;9939;49.246;9.106;2023-02-25T19:50:53;2.50;99.90
19586;DHT22;9939;49.246;9.106;2023-02-25T19:53:20;2.50;99.90
19586;DHT22;9939;49.246;9.106;2023-02-25T19:55:47;2.40;99.90
19586;DHT22;9939;49.246;9.106;2023-02-25T19:58:14;2.40;99.90
19586;DHT22;9939;49.246;9.106;2023-02-25T20:00:41;2.30;99.90
19586;DHT22;9939;49.246;9.106;2023-02-25T20:03:12;2.30;99.90
19586;DHT22;9939;49.246;9.106;2023-02-25T20:05:39;2.20;99.90
19586;DHT22;9939;49.246;9.106;2023-02-25T20:08:07;2.00;99.90
19586;DHT22;9939;49.246;9.106;2023-02-25T20:10:34;2.00;99.90
19586;DHT22;9939;49.246;9.106;2023-02-25T20:13:01;1.90;99.90
19586;DHT22;9939;49.246;9.106;2023-02-25T20:15:28;1.90;99.90
19586;DHT22;9939;49.246;9.106;2023-02-25T20:17:54;1.90;99.90
19586;DHT22;9939;49.246;9.106;2023-02-25T20:20:23;1.80;99.90
19586;DHT22;9939;49.246;9.106;2023-02-25T20:22:49;1.90;99.90
19586;DHT22;9939;49.246;9.106;2023-02-25T20:25:17;2.00;99.90
19586;DHT22;9939;49.246;9.106;2023-02-25T20:27:43;1.90;99.90
19586;DHT22;9939;49.246;9.106;2023-02-25T20:30:11;1.90;99.90
19586;DHT22;9939;49.246;9.106;2023-02-25T20:32:40;1.80;99.90
19586;DHT22;9939;49.246;9.106;2023-02-25T20:35:09;1.80;99.90
19586;DHT22;9939;49.246;9.106;2023-02-25T20:37:37;1.70;99.90
19586;DHT22;9939;49.246;9.106;2023-02-25T20:40:09;1.80;99.90
19586;DHT22;9939;49.246;9.106;2023-02-25T20:42:37;1.70;99.90
19586;DHT22;9939;49.246;9.106;2023-02-25T20:45:04;1.70;99.90
19586;DHT22;9939;49.246;9.106;2023-02-25T20:47:32;1.60;99.90
19586;DHT22;9939;49.246;9.106;2023-02-25T20:50:03;1.50;99.90
19586;DHT22;9939;49.246;9.106;2023-02-25T20:52:31;1.60;99.90
19586;DHT22;9939;49.246;9.106;2023-02-25T20:54:58;1.50;99.90
19586;DHT22;9939;49.246;9.106;2023-02-25T20:57:25;1.60;99.90
19586;DHT22;9939;49.246;9.106;2023-02-25T20:59:52;1.60;99.90
19586;DHT22;9939;49.246;9.106;2023-02-25T21:02:20;1.60;99.90
19586;DHT22;9939;49.246;9.106;2023-02-25T21:04:47;1.40;99.90
19586;DHT22;9939;49.246;9.106;2023-02-25T21:07:14;1.30;99.90
19586;DHT22;9939;49.246;9.106;2023-02-25T21:09:40;1.00;99.90
19586;DHT22;9939;49.246;9.106;2023-02-25T21:12:07;0.90;99.90